sensor_id;sensor_type;location;lat;lon;timestamp;temperature;humidity
73360;DHT22;63092;43.582;19.528;2024-01-11T00:00:05;1.50;98.90
73360;DHT22;63092;43.582;19.528;2024-01-11T00:02:30;1.50;98.50
73360;DHT22;63092;43.582;19.528;2024-01-11T00:04:56;1.50;98.80
73360;DHT22;63092;43.582;19.528;2024-01-11T00:07:21;1.50;98.70
73360;DHT22;63092;43.582;19.528;2024-01-11T00:09:47;1.60;98.50
73360;DHT22;63092;43.582;19.528;2024-01-11T00:12:13;1.60;98.20
73360;DHT22;63092;43.582;19.528;2024-01-11T00:14:38;1.60;98.10
73360;DHT22;63092;43.582;19.528;2024-01-11T00:17:04;1.50;98.00
73360;DHT22;63092;43.582;19.528;2024-01-11T00:19:29;1.50;98.20
73360;DHT22;63092;43.582;19.528;2024-01-11T00:21:55;1.50;98.10
73360;DHT22;63092;43.582;19.528;2024-01-11T00:24:20;1.50;98.10
73360;DHT22;63092;43.582;19.528;2024-01-11T00:26:46;1.50;97.90
73360;DHT22;63092;43.582;19.528;2024-01-11T00:29:12;1.50;98.10
73360;DHT22;63092;43.582;19.528;2024-01-11T00:31:37;1.50;98.00
73360;DHT22;63092;43.582;19.528;2024-01-11T00:34:04;1.60;98.00
73360;DHT22;63092;43.582;19.528;2024-01-11T00:36:29;1.60;98.30
73360;DHT22;63092;43.582;19.528;2024-01-11T00:38:55;1.60;97.80
73360;DHT22;63092;43.582;19.528;2024-01-11T00:41:21;1.60;97.60
73360;DHT22;63092;43.582;19.528;2024-01-11T00:43:46;1.50;97.80
73360;DHT22;63092;43.582;19.528;2024-01-11T00:46:12;1.50;97.90
73360;DHT22;63092;43.582;19.528;2024-01-11T00:48:38;1.50;98.10
73360;DHT22;63092;43.582;19.528;2024-01-11T00:51:04;1.60;97.80
73360;DHT22;63092;43.582;19.528;2024-01-11T00:53:29;1.50;97.90
73360;DHT22;63092;43.582;19.528;2024-01-11T00:55:57;1.50;98.10
73360;DHT22;63092;43.582;19.528;2024-01-11T00:58:22;1.40;98.00
73360;DHT22;63092;43.582;19.528;2024-01-11T01:00:48;1.20;98.30
73360;DHT22;63092;43.582;19.528;2024-01-11T01:03:15;1.20;98.70
73360;DHT22;63092;43.582;19.528;2024-01-11T01:05:41;1.00;98.70
73360;DHT22;63092;43.582;19.528;2024-01-11T01:08:07;1.00;99.20
73360;DHT22;63092;43.582;19.528;2024-01-11T01:10:32;0.90;99.30
73360;DHT22;63092;43.582;19.528;2024-01-11T01:12:58;1.00;99.70
73360;DHT22;63092;43.582;19.528;2024-01-11T01:15:23;1.10;99.50
73360;DHT22;63092;43.582;19.528;2024-01-11T01:17:49;1.10;99.20
73360;DHT22;63092;43.582;19.528;2024-01-11T01:20:15;1.10;99.40
73360;DHT22;63092;43.582;19.528;2024-01-11T01:22:40;1.10;99.20
73360;DHT22;63092;43.582;19.528;2024-01-11T01:25:06;1.10;99.30
73360;DHT22;63092;43.582;19.528;2024-01-11T01:27:32;1.10;99.30
73360;DHT22;63092;43.582;19.528;2024-01-11T01:29:57;1.10;99.30
73360;DHT22;63092;43.582;19.528;2024-01-11T01:32:24;1.20;99.30
73360;DHT22;63092;43.582;19.528;2024-01-11T01:34:50;1.20;99.50
73360;DHT22;63092;43.582;19.528;2024-01-11T01:37:15;1.00;99.80
73360;DHT22;63092;43.582;19.528;2024-01-11T01:39:41;1.00;99.90
73360;DHT22;63092;43.582;19.528;2024-01-11T01:42:07;1.10;99.90
73360;DHT22;63092;43.582;19.528;2024-01-11T01:44:33;1.20;99.70
73360;DHT22;63092;43.582;19.528;2024-01-11T01:46:59;1.30;99.40
73360;DHT22;63092;43.582;19.528;2024-01-11T01:49:25;1.30;99.00
73360;DHT22;63092;43.582;19.528;2024-01-11T01:51:51;1.30;99.10
73360;DHT22;63092;43.582;19.528;2024-01-11T01:54:17;1.30;99.30
73360;DHT22;63092;43.582;19.528;2024-01-11T01:56:44;1.40;98.90
73360;DHT22;63092;43.582;19.528;2024-01-11T01:59:09;1.40;98.80
73360;DHT22;63092;43.582;19.528;2024-01-11T02:01:36;1.30;98.80
73360;DHT22;63092;43.582;19.528;2024-01-11T02:04:01;1.40;99.30
73360;DHT22;63092;43.582;19.528;2024-01-11T02:06:27;1.30;99.00
73360;DHT22;63092;43.582;19.528;2024-01-11T02:08:54;1.20;99.20
73360;DHT22;63092;43.582;19.528;2024-01-11T02:11:21;1.20;99.60
73360;DHT22;63092;43.582;19.528;2024-01-11T02:13:51;1.20;99.30
73360;DHT22;63092;43.582;19.528;2024-01-11T02:16:17;1.00;99.80
73360;DHT22;63092;43.582;19.528;2024-01-11T02:18:42;0.90;99.90
73360;DHT22;63092;43.582;19.528;2024-01-11T02:21:09;1.00;99.90
73360;DHT22;63092;43.582;19.528;2024-01-11T02:23:36;1.00;99.90
73360;DHT22;63092;43.582;19.528;2024-01-11T02:26:02;0.90;99.90
73360;DHT22;63092;43.582;19.528;2024-01-11T02:28:27;0.90;99.90
73360;DHT22;63092;43.582;19.528;2024-01-11T02:30:53;1.00;99.90
73360;DHT22;63092;43.582;19.528;2024-01-11T02:33:18;1.10;99.90
73360;DHT22;63092;43.582;19.528;2024-01-11T02:35:44;1.10;99.90
73360;DHT22;63092;43.582;19.528;2024-01-11T02:38:10;1.20;99.80
73360;DHT22;63092;43.582;19.528;2024-01-11T02:40:37;1.30;99.70
73360;DHT22;63092;43.582;19.528;2024-01-11T02:43:09;1.30;99.50
73360;DHT22;63092;43.582;19.528;2024-01-11T02:45:35;1.30;99.20
73360;DHT22;63092;43.582;19.528;2024-01-11T02:48:01;1.50;99.10
73360;DHT22;63092;43.582;19.528;2024-01-11T02:50:26;1.30;99.20
73360;DHT22;63092;43.582;19.528;2024-01-11T02:52:52;1.30;99.60
73360;DHT22;63092;43.582;19.528;2024-01-11T02:55:18;1.30;99.90
73360;DHT22;63092;43.582;19.528;2024-01-11T02:57:43;1.30;99.70
73360;DHT22;63092;43.582;19.528;2024-01-11T03:00:09;1.30;99.60
73360;DHT22;63092;43.582;19.528;2024-01-11T03:02:35;1.10;99.80
73360;DHT22;63092;43.582;19.528;2024-01-11T03:05:02;1.10;99.90
73360;DHT22;63092;43.582;19.528;2024-01-11T03:07:27;1.10;99.90
73360;DHT22;63092;43.582;19.528;2024-01-11T03:09:54;1.20;99.90
73360;DHT22;63092;43.582;19.528;2024-01-11T03:12:20;1.20;99.90
73360;DHT22;63092;43.582;19.528;2024-01-11T03:14:46;1.20;99.90
73360;DHT22;63092;43.582;19.528;2024-01-11T03:17:12;1.30;99.90
73360;DHT22;63092;43.582;19.528;2024-01-11T03:19:40;1.20;99.70
73360;DHT22;63092;43.582;19.528;2024-01-11T03:22:06;1.00;99.90
73360;DHT22;63092;43.582;19.528;2024-01-11T03:24:32;0.80;99.90
73360;DHT22;63092;43.582;19.528;2024-01-11T03:26:58;0.70;99.90
73360;DHT22;63092;43.582;19.528;2024-01-11T03:29:23;0.70;99.90
73360;DHT22;63092;43.582;19.528;2024-01-11T03:31:49;0.70;99.90
73360;DHT22;63092;43.582;19.528;2024-01-11T03:34:14;0.70;99.90
73360;DHT22;63092;43.582;19.528;2024-01-11T03:36:40;0.70;99.90
73360;DHT22;63092;43.582;19.528;2024-01-11T03:39:06;0.70;99.90
73360;DHT22;63092;43.582;19.528;2024-01-11T03:41:31;0.80;99.90
73360;DHT22;63092;43.582;19.528;2024-01-11T03:43:57;0.80;99.90
73360;DHT22;63092;43.582;19.528;2024-01-11T03:46:22;0.90;99.90
73360;DHT22;63092;43.582;19.528;2024-01-11T03:48:48;0.90;99.90
73360;DHT22;63092;43.582;19.528;2024-01-11T03:51:14;0.90;99.90
73360;DHT22;63092;43.582;19.528;2024-01-11T03:53:39;1.00;99.90
73360;DHT22;63092;43.582;19.528;2024-01-11T03:56:05;0.90;99.90
73360;DHT22;63092;43.582;19.528;2024-01-11T03:58:31;0.90;99.90
73360;DHT22;63092;43.582;19.528;2024-01-11T04:00:56;1.00;99.90
73360;DHT22;63092;43.582;19.528;2024-01-11T04:03:22;1.00;99.90
73360;DHT22;63092;43.582;19.528;2024-01-11T04:05:48;1.00;99.90
73360;DHT22;63092;43.582;19.528;2024-01-11T04:08:13;1.00;99.90
73360;DHT22;63092;43.582;19.528;2024-01-11T04:10:39;0.90;99.90
73360;DHT22;63092;43.582;19.528;2024-01-11T04:13:06;0.80;99.90
73360;DHT22;63092;43.582;19.528;2024-01-11T04:15:32;0.70;99.90
73360;DHT22;63092;43.582;19.528;2024-01-11T04:17:57;0.60;99.90
73360;DHT22;63092;43.582;19.528;2024-01-11T04:20:23;0.70;99.90
73360;DHT22;63092;43.582;19.528;2024-01-11T04:22:49;0.70;99.90
73360;DHT22;63092;43.582;19.528;2024-01-11T04:25:15;0.80;99.90
73360;DHT22;63092;43.582;19.528;2024-01-11T04:27:40;0.90;99.90
73360;DHT22;63092;43.582;19.528;2024-01-11T04:30:06;1.00;99.90
73360;DHT22;63092;43.582;19.528;2024-01-11T04:32:32;1.00;99.90
73360;DHT22;63092;43.582;19.528;2024-01-11T04:34:57;1.00;99.90
73360;DHT22;63092;43.582;19.528;2024-01-11T04:37:23;1.00;99.90
73360;DHT22;63092;43.582;19.528;2024-01-11T04:39:48;1.10;99.90
73360;DHT22;63092;43.582;19.528;2024-01-11T04:42:14;1.20;99.90
73360;DHT22;63092;43.582;19.528;2024-01-11T04:44:40;1.30;99.90
73360;DHT22;63092;43.582;19.528;2024-01-11T04:47:05;1.30;99.90
73360;DHT22;63092;43.582;19.528;2024-01-11T04:49:31;1.30;99.90
73360;DHT22;63092;43.582;19.528;2024-01-11T04:51:56;1.30;99.90
73360;DHT22;63092;43.582;19.528;2024-01-11T04:54:22;1.30;99.90
73360;DHT22;63092;43.582;19.528;2024-01-11T04:56:47;1.20;99.90
73360;DHT22;63092;43.582;19.528;2024-01-11T04:59:13;1.20;99.90
73360;DHT22;63092;43.582;19.528;2024-01-11T05:01:39;1.20;99.90
73360;DHT22;63092;43.582;19.528;2024-01-11T05:04:06;1.20;99.90
73360;DHT22;63092;43.582;19.528;2024-01-11T05:06:31;1.30;99.90
73360;DHT22;63092;43.582;19.528;2024-01-11T05:08:57;1.30;99.90
73360;DHT22;63092;43.582;19.528;2024-01-11T05:11:23;1.30;99.90
73360;DHT22;63092;43.582;19.528;2024-01-11T05:13:49;1.20;99.90
73360;DHT22;63092;43.582;19.528;2024-01-11T05:16:25;1.20;99.90
73360;DHT22;63092;43.582;19.528;2024-01-11T05:18:51;1.20;99.90
73360;DHT22;63092;43.582;19.528;2024-01-11T05:21:17;1.20;99.90
73360;DHT22;63092;43.582;19.528;2024-01-11T05:23:42;1.20;99.90
73360;DHT22;63092;43.582;19.528;2024-01-11T05:26:12;1.30;99.90
73360;DHT22;63092;43.582;19.528;2024-01-11T05:28:38;1.30;99.90
73360;DHT22;63092;43.582;19.528;2024-01-11T05:31:10;1.30;99.90
73360;DHT22;63092;43.582;19.528;2024-01-11T05:33:36;1.20;99.90
73360;DHT22;63092;43.582;19.528;2024-01-11T05:36:02;1.20;99.90
73360;DHT22;63092;43.582;19.528;2024-01-11T05:38:27;1.20;99.90
73360;DHT22;63092;43.582;19.528;2024-01-11T05:40:53;1.20;99.90
73360;DHT22;63092;43.582;19.528;2024-01-11T05:43:19;1.20;99.90
73360;DHT22;63092;43.582;19.528;2024-01-11T05:45:44;1.20;99.90
73360;DHT22;63092;43.582;19.528;2024-01-11T05:48:10;1.20;99.90
73360;DHT22;63092;43.582;19.528;2024-01-11T05:50:36;1.30;99.90
73360;DHT22;63092;43.582;19.528;2024-01-11T05:53:01;1.30;99.90
73360;DHT22;63092;43.582;19.528;2024-01-11T05:55:27;1.30;99.90
73360;DHT22;63092;43.582;19.528;2024-01-11T05:57:52;1.30;99.90
73360;DHT22;63092;43.582;19.528;2024-01-11T06:00:18;1.30;99.90
73360;DHT22;63092;43.582;19.528;2024-01-11T06:02:44;1.50;99.80
73360;DHT22;63092;43.582;19.528;2024-01-11T06:05:09;1.30;99.70
73360;DHT22;63092;43.582;19.528;2024-01-11T06:07:35;1.30;99.90
73360;DHT22;63092;43.582;19.528;2024-01-11T06:10:00;1.20;99.90
73360;DHT22;63092;43.582;19.528;2024-01-11T06:12:30;1.30;99.90
73360;DHT22;63092;43.582;19.528;2024-01-11T06:14:56;1.30;99.90
73360;DHT22;63092;43.582;19.528;2024-01-11T06:17:23;1.30;99.60
73360;DHT22;63092;43.582;19.528;2024-01-11T06:19:49;1.40;99.90
73360;DHT22;63092;43.582;19.528;2024-01-11T06:22:14;1.40;99.90
73360;DHT22;63092;43.582;19.528;2024-01-11T06:24:40;1.30;99.90
73360;DHT22;63092;43.582;19.528;2024-01-11T06:27:05;1.20;99.90
73360;DHT22;63092;43.582;19.528;2024-01-11T06:29:31;1.10;99.90
73360;DHT22;63092;43.582;19.528;2024-01-11T06:31:57;1.10;99.90
73360;DHT22;63092;43.582;19.528;2024-01-11T06:34:22;1.20;99.90
73360;DHT22;63092;43.582;19.528;2024-01-11T06:36:48;1.20;99.90
73360;DHT22;63092;43.582;19.528;2024-01-11T06:39:13;1.20;99.90
73360;DHT22;63092;43.582;19.528;2024-01-11T06:41:39;1.10;99.90
73360;DHT22;63092;43.582;19.528;2024-01-11T06:44:04;1.10;99.90
73360;DHT22;63092;43.582;19.528;2024-01-11T06:46:30;1.20;99.90
73360;DHT22;63092;43.582;19.528;2024-01-11T06:48:56;1.40;99.90
73360;DHT22;63092;43.582;19.528;2024-01-11T06:51:22;1.40;99.90
73360;DHT22;63092;43.582;19.528;2024-01-11T06:53:48;1.50;99.90
73360;DHT22;63092;43.582;19.528;2024-01-11T06:56:14;1.40;99.90
73360;DHT22;63092;43.582;19.528;2024-01-11T06:58:40;1.50;99.90
73360;DHT22;63092;43.582;19.528;2024-01-11T07:01:05;1.50;99.80
73360;DHT22;63092;43.582;19.528;2024-01-11T07:03:31;1.50;99.70
73360;DHT22;63092;43.582;19.528;2024-01-11T07:05:56;1.40;99.70
73360;DHT22;63092;43.582;19.528;2024-01-11T07:08:22;1.50;99.70
73360;DHT22;63092;43.582;19.528;2024-01-11T07:10:48;1.60;99.50
73360;DHT22;63092;43.582;19.528;2024-01-11T07:13:13;1.40;99.90
73360;DHT22;63092;43.582;19.528;2024-01-11T07:15:42;1.30;99.90
73360;DHT22;63092;43.582;19.528;2024-01-11T07:18:07;1.30;99.90
73360;DHT22;63092;43.582;19.528;2024-01-11T07:20:33;1.40;99.90
73360;DHT22;63092;43.582;19.528;2024-01-11T07:22:59;1.40;99.90
73360;DHT22;63092;43.582;19.528;2024-01-11T07:25:25;1.40;99.90
73360;DHT22;63092;43.582;19.528;2024-01-11T07:27:50;1.50;99.90
73360;DHT22;63092;43.582;19.528;2024-01-11T07:30:16;1.50;99.90
73360;DHT22;63092;43.582;19.528;2024-01-11T07:32:43;1.50;99.70
73360;DHT22;63092;43.582;19.528;2024-01-11T07:35:09;1.60;99.90
73360;DHT22;63092;43.582;19.528;2024-01-11T07:37:38;1.60;99.80
73360;DHT22;63092;43.582;19.528;2024-01-11T07:40:05;1.70;99.60
73360;DHT22;63092;43.582;19.528;2024-01-11T07:42:35;1.70;99.70
73360;DHT22;63092;43.582;19.528;2024-01-11T07:45:01;1.80;99.00
73360;DHT22;63092;43.582;19.528;2024-01-11T07:47:26;1.80;98.90
73360;DHT22;63092;43.582;19.528;2024-01-11T07:49:52;1.80;99.00
73360;DHT22;63092;43.582;19.528;2024-01-11T07:52:17;1.80;98.50
73360;DHT22;63092;43.582;19.528;2024-01-11T07:54:43;1.90;98.70
73360;DHT22;63092;43.582;19.528;2024-01-11T07:57:09;1.90;98.50
73360;DHT22;63092;43.582;19.528;2024-01-11T07:59:34;1.90;98.50
73360;DHT22;63092;43.582;19.528;2024-01-11T08:02:03;1.90;98.60
73360;DHT22;63092;43.582;19.528;2024-01-11T08:04:29;1.90;98.10
73360;DHT22;63092;43.582;19.528;2024-01-11T08:06:54;1.80;98.20
73360;DHT22;63092;43.582;19.528;2024-01-11T08:09:20;1.80;98.20
73360;DHT22;63092;43.582;19.528;2024-01-11T08:11:47;1.90;98.30
73360;DHT22;63092;43.582;19.528;2024-01-11T08:14:12;1.90;97.80
73360;DHT22;63092;43.582;19.528;2024-01-11T08:16:39;1.90;97.80
73360;DHT22;63092;43.582;19.528;2024-01-11T08:19:04;1.90;98.30
73360;DHT22;63092;43.582;19.528;2024-01-11T08:21:30;2.00;98.10
73360;DHT22;63092;43.582;19.528;2024-01-11T08:23:56;2.10;97.70
73360;DHT22;63092;43.582;19.528;2024-01-11T08:26:22;2.20;97.80
73360;DHT22;63092;43.582;19.528;2024-01-11T08:28:48;2.20;97.20
73360;DHT22;63092;43.582;19.528;2024-01-11T08:31:13;2.20;97.50
73360;DHT22;63092;43.582;19.528;2024-01-11T08:33:39;2.10;97.10
73360;DHT22;63092;43.582;19.528;2024-01-11T08:36:05;2.00;97.20
73360;DHT22;63092;43.582;19.528;2024-01-11T08:38:31;2.00;97.00
73360;DHT22;63092;43.582;19.528;2024-01-11T08:40:58;2.10;97.30
73360;DHT22;63092;43.582;19.528;2024-01-11T08:43:26;2.10;97.20
73360;DHT22;63092;43.582;19.528;2024-01-11T08:45:52;2.20;97.30
73360;DHT22;63092;43.582;19.528;2024-01-11T08:48:17;2.20;97.00
73360;DHT22;63092;43.582;19.528;2024-01-11T08:50:43;2.30;96.90
73360;DHT22;63092;43.582;19.528;2024-01-11T08:53:09;2.30;96.40
73360;DHT22;63092;43.582;19.528;2024-01-11T08:55:34;2.30;96.60
73360;DHT22;63092;43.582;19.528;2024-01-11T08:58:00;2.20;96.60
73360;DHT22;63092;43.582;19.528;2024-01-11T09:00:26;2.30;96.30
73360;DHT22;63092;43.582;19.528;2024-01-11T09:02:52;2.30;96.20
73360;DHT22;63092;43.582;19.528;2024-01-11T09:05:17;2.30;95.80
73360;DHT22;63092;43.582;19.528;2024-01-11T09:07:43;2.30;95.80
73360;DHT22;63092;43.582;19.528;2024-01-11T09:10:08;2.30;95.50
73360;DHT22;63092;43.582;19.528;2024-01-11T09:12:35;2.40;95.50
73360;DHT22;63092;43.582;19.528;2024-01-11T09:15:00;2.50;95.40
73360;DHT22;63092;43.582;19.528;2024-01-11T09:17:26;2.60;94.70
73360;DHT22;63092;43.582;19.528;2024-01-11T09:19:51;2.60;94.80
73360;DHT22;63092;43.582;19.528;2024-01-11T09:22:17;2.40;94.70
73360;DHT22;63092;43.582;19.528;2024-01-11T09:24:42;2.30;95.20
73360;DHT22;63092;43.582;19.528;2024-01-11T09:27:08;2.40;95.20
73360;DHT22;63092;43.582;19.528;2024-01-11T09:29:34;2.60;95.10
73360;DHT22;63092;43.582;19.528;2024-01-11T09:31:59;2.60;94.40
73360;DHT22;63092;43.582;19.528;2024-01-11T09:34:25;2.70;94.20
73360;DHT22;63092;43.582;19.528;2024-01-11T09:36:50;2.80;94.40
73360;DHT22;63092;43.582;19.528;2024-01-11T09:39:17;2.80;93.90
73360;DHT22;63092;43.582;19.528;2024-01-11T09:41:44;2.80;93.60
73360;DHT22;63092;43.582;19.528;2024-01-11T09:44:13;2.80;93.60
73360;DHT22;63092;43.582;19.528;2024-01-11T09:46:39;2.80;93.40
73360;DHT22;63092;43.582;19.528;2024-01-11T09:49:04;2.80;93.20
73360;DHT22;63092;43.582;19.528;2024-01-11T09:51:30;2.90;93.60
73360;DHT22;63092;43.582;19.528;2024-01-11T09:53:56;3.00;93.00
73360;DHT22;63092;43.582;19.528;2024-01-11T09:56:23;3.00;92.80
73360;DHT22;63092;43.582;19.528;2024-01-11T09:58:50;3.00;92.80
73360;DHT22;63092;43.582;19.528;2024-01-11T10:01:16;3.10;92.70
73360;DHT22;63092;43.582;19.528;2024-01-11T10:03:42;2.80;92.90
73360;DHT22;63092;43.582;19.528;2024-01-11T10:06:08;2.70;93.10
73360;DHT22;63092;43.582;19.528;2024-01-11T10:08:35;2.60;93.00
73360;DHT22;63092;43.582;19.528;2024-01-11T10:11:01;2.50;93.30
73360;DHT22;63092;43.582;19.528;2024-01-11T10:13:28;2.60;93.40
73360;DHT22;63092;43.582;19.528;2024-01-11T10:18:33;2.90;93.10
73360;DHT22;63092;43.582;19.528;2024-01-11T10:20:59;2.90;92.60
73360;DHT22;63092;43.582;19.528;2024-01-11T10:23:24;2.60;92.80
73360;DHT22;63092;43.582;19.528;2024-01-11T10:25:50;2.70;93.30
73360;DHT22;63092;43.582;19.528;2024-01-11T10:28:16;2.50;92.90
73360;DHT22;63092;43.582;19.528;2024-01-11T10:30:45;2.50;93.40
73360;DHT22;63092;43.582;19.528;2024-01-11T10:33:11;2.60;93.20
73360;DHT22;63092;43.582;19.528;2024-01-11T10:35:37;2.70;93.00
73360;DHT22;63092;43.582;19.528;2024-01-11T10:38:03;2.80;93.00
73360;DHT22;63092;43.582;19.528;2024-01-11T10:40:33;2.90;92.70
73360;DHT22;63092;43.582;19.528;2024-01-11T10:42:58;2.90;92.50
73360;DHT22;63092;43.582;19.528;2024-01-11T10:45:25;2.90;92.60
73360;DHT22;63092;43.582;19.528;2024-01-11T10:50:17;2.90;92.30
73360;DHT22;63092;43.582;19.528;2024-01-11T10:52:57;3.00;92.50
73360;DHT22;63092;43.582;19.528;2024-01-11T10:55:26;3.10;92.30
73360;DHT22;63092;43.582;19.528;2024-01-11T10:57:51;3.20;92.00
73360;DHT22;63092;43.582;19.528;2024-01-11T11:00:18;3.20;92.20
73360;DHT22;63092;43.582;19.528;2024-01-11T11:02:44;3.20;91.90
73360;DHT22;63092;43.582;19.528;2024-01-11T11:05:10;3.30;91.80
73360;DHT22;63092;43.582;19.528;2024-01-11T11:07:37;3.20;91.90
73360;DHT22;63092;43.582;19.528;2024-01-11T11:10:04;3.40;91.80
73360;DHT22;63092;43.582;19.528;2024-01-11T11:12:31;3.30;91.40
73360;DHT22;63092;43.582;19.528;2024-01-11T11:14:58;3.30;91.80
73360;DHT22;63092;43.582;19.528;2024-01-11T11:17:25;3.40;91.50
73360;DHT22;63092;43.582;19.528;2024-01-11T11:19:50;3.40;91.50
73360;DHT22;63092;43.582;19.528;2024-01-11T11:22:16;3.20;91.60
73360;DHT22;63092;43.582;19.528;2024-01-11T11:24:41;3.20;91.60
73360;DHT22;63092;43.582;19.528;2024-01-11T11:27:07;3.20;91.40
73360;DHT22;63092;43.582;19.528;2024-01-11T11:29:33;3.30;91.70
73360;DHT22;63092;43.582;19.528;2024-01-11T11:31:59;3.40;91.60
73360;DHT22;63092;43.582;19.528;2024-01-11T11:34:40;3.50;91.30
73360;DHT22;63092;43.582;19.528;2024-01-11T11:37:08;3.50;91.10
73360;DHT22;63092;43.582;19.528;2024-01-11T11:39:34;3.50;91.10
73360;DHT22;63092;43.582;19.528;2024-01-11T11:41:59;3.50;91.50
73360;DHT22;63092;43.582;19.528;2024-01-11T11:44:26;3.70;91.20
73360;DHT22;63092;43.582;19.528;2024-01-11T11:46:52;3.70;90.90
73360;DHT22;63092;43.582;19.528;2024-01-11T11:49:18;3.70;90.60
73360;DHT22;63092;43.582;19.528;2024-01-11T11:51:44;3.70;90.90
73360;DHT22;63092;43.582;19.528;2024-01-11T11:54:09;3.90;91.10
73360;DHT22;63092;43.582;19.528;2024-01-11T11:56:36;4.00;90.50
73360;DHT22;63092;43.582;19.528;2024-01-11T11:59:02;4.00;90.20
73360;DHT22;63092;43.582;19.528;2024-01-11T12:01:29;3.90;90.00
73360;DHT22;63092;43.582;19.528;2024-01-11T12:03:56;3.90;90.20
73360;DHT22;63092;43.582;19.528;2024-01-11T12:06:22;3.90;90.40
73360;DHT22;63092;43.582;19.528;2024-01-11T12:08:50;3.90;90.50
73360;DHT22;63092;43.582;19.528;2024-01-11T12:11:18;3.90;90.10
73360;DHT22;63092;43.582;19.528;2024-01-11T12:13:44;3.80;90.40
73360;DHT22;63092;43.582;19.528;2024-01-11T12:16:10;3.90;90.40
73360;DHT22;63092;43.582;19.528;2024-01-11T12:18:35;4.00;90.30
73360;DHT22;63092;43.582;19.528;2024-01-11T12:21:01;4.00;89.80
73360;DHT22;63092;43.582;19.528;2024-01-11T12:23:27;4.00;90.20
73360;DHT22;63092;43.582;19.528;2024-01-11T12:25:56;4.00;90.50
73360;DHT22;63092;43.582;19.528;2024-01-11T12:28:21;3.90;90.30
73360;DHT22;63092;43.582;19.528;2024-01-11T12:30:47;3.80;90.10
73360;DHT22;63092;43.582;19.528;2024-01-11T12:33:13;3.80;90.30
73360;DHT22;63092;43.582;19.528;2024-01-11T12:35:39;3.80;90.40
73360;DHT22;63092;43.582;19.528;2024-01-11T12:38:05;3.90;90.20
73360;DHT22;63092;43.582;19.528;2024-01-11T12:40:32;3.70;90.30
73360;DHT22;63092;43.582;19.528;2024-01-11T12:42:57;3.80;90.50
73360;DHT22;63092;43.582;19.528;2024-01-11T12:45:24;3.70;90.60
73360;DHT22;63092;43.582;19.528;2024-01-11T12:47:51;3.60;90.40
73360;DHT22;63092;43.582;19.528;2024-01-11T12:50:17;3.50;90.70
73360;DHT22;63092;43.582;19.528;2024-01-11T12:52:43;3.60;90.80
73360;DHT22;63092;43.582;19.528;2024-01-11T12:55:17;3.70;90.70
73360;DHT22;63092;43.582;19.528;2024-01-11T12:57:43;3.70;90.90
73360;DHT22;63092;43.582;19.528;2024-01-11T13:00:18;3.70;91.10
73360;DHT22;63092;43.582;19.528;2024-01-11T13:02:43;3.60;90.90
73360;DHT22;63092;43.582;19.528;2024-01-11T13:05:11;3.40;91.00
73360;DHT22;63092;43.582;19.528;2024-01-11T13:07:37;3.10;91.30
73360;DHT22;63092;43.582;19.528;2024-01-11T13:10:03;3.10;91.70
73360;DHT22;63092;43.582;19.528;2024-01-11T13:12:29;3.20;91.70
73360;DHT22;63092;43.582;19.528;2024-01-11T13:14:55;3.30;91.60
73360;DHT22;63092;43.582;19.528;2024-01-11T13:17:21;3.10;91.40
73360;DHT22;63092;43.582;19.528;2024-01-11T13:19:47;3.20;91.40
73360;DHT22;63092;43.582;19.528;2024-01-11T13:22:12;3.20;91.50
73360;DHT22;63092;43.582;19.528;2024-01-11T13:24:38;3.10;91.30
73360;DHT22;63092;43.582;19.528;2024-01-11T13:27:04;3.10;91.60
73360;DHT22;63092;43.582;19.528;2024-01-11T13:29:29;3.20;91.80
73360;DHT22;63092;43.582;19.528;2024-01-11T13:31:55;3.30;91.70
73360;DHT22;63092;43.582;19.528;2024-01-11T13:34:21;3.40;91.20
73360;DHT22;63092;43.582;19.528;2024-01-11T13:36:46;3.40;91.30
73360;DHT22;63092;43.582;19.528;2024-01-11T13:39:12;3.30;91.30
73360;DHT22;63092;43.582;19.528;2024-01-11T13:41:37;3.40;91.50
73360;DHT22;63092;43.582;19.528;2024-01-11T13:44:06;3.30;91.00
73360;DHT22;63092;43.582;19.528;2024-01-11T13:46:32;3.40;91.40
73360;DHT22;63092;43.582;19.528;2024-01-11T13:48:58;3.30;91.40
73360;DHT22;63092;43.582;19.528;2024-01-11T13:51:23;3.20;91.60
73360;DHT22;63092;43.582;19.528;2024-01-11T13:53:49;3.30;91.90
73360;DHT22;63092;43.582;19.528;2024-01-11T13:56:14;3.40;91.50
73360;DHT22;63092;43.582;19.528;2024-01-11T13:58:40;3.40;91.40
73360;DHT22;63092;43.582;19.528;2024-01-11T14:01:06;3.50;91.20
73360;DHT22;63092;43.582;19.528;2024-01-11T14:03:33;3.30;91.40
73360;DHT22;63092;43.582;19.528;2024-01-11T14:05:58;3.10;91.60
73360;DHT22;63092;43.582;19.528;2024-01-11T14:08:25;3.10;91.80
73360;DHT22;63092;43.582;19.528;2024-01-11T14:10:51;3.20;91.70
73360;DHT22;63092;43.582;19.528;2024-01-11T14:13:16;3.20;91.80
73360;DHT22;63092;43.582;19.528;2024-01-11T14:15:42;3.30;91.30
73360;DHT22;63092;43.582;19.528;2024-01-11T14:18:07;3.30;91.60
73360;DHT22;63092;43.582;19.528;2024-01-11T14:20:34;3.30;91.50
73360;DHT22;63092;43.582;19.528;2024-01-11T14:23:00;3.30;91.60
73360;DHT22;63092;43.582;19.528;2024-01-11T14:25:26;3.30;91.60
73360;DHT22;63092;43.582;19.528;2024-01-11T14:27:52;3.30;91.80
73360;DHT22;63092;43.582;19.528;2024-01-11T14:30:18;3.30;91.80
73360;DHT22;63092;43.582;19.528;2024-01-11T14:32:44;3.30;91.90
73360;DHT22;63092;43.582;19.528;2024-01-11T14:35:10;3.20;92.10
73360;DHT22;63092;43.582;19.528;2024-01-11T14:37:37;3.10;92.30
73360;DHT22;63092;43.582;19.528;2024-01-11T14:40:03;3.00;92.30
73360;DHT22;63092;43.582;19.528;2024-01-11T14:42:29;3.00;92.70
73360;DHT22;63092;43.582;19.528;2024-01-11T14:44:55;3.00;92.40
73360;DHT22;63092;43.582;19.528;2024-01-11T14:47:21;3.00;92.60
73360;DHT22;63092;43.582;19.528;2024-01-11T14:49:47;3.10;92.80
73360;DHT22;63092;43.582;19.528;2024-01-11T14:52:12;2.90;92.60
73360;DHT22;63092;43.582;19.528;2024-01-11T14:54:38;2.80;93.00
73360;DHT22;63092;43.582;19.528;2024-01-11T14:57:04;2.70;93.10
73360;DHT22;63092;43.582;19.528;2024-01-11T14:59:30;2.70;93.60
73360;DHT22;63092;43.582;19.528;2024-01-11T15:01:56;2.70;93.60
73360;DHT22;63092;43.582;19.528;2024-01-11T15:04:22;2.70;93.80
73360;DHT22;63092;43.582;19.528;2024-01-11T15:06:47;2.80;93.30
73360;DHT22;63092;43.582;19.528;2024-01-11T15:09:14;2.80;93.10
73360;DHT22;63092;43.582;19.528;2024-01-11T15:11:40;2.60;93.30
73360;DHT22;63092;43.582;19.528;2024-01-11T15:14:06;2.50;93.20
73360;DHT22;63092;43.582;19.528;2024-01-11T15:16:32;2.50;93.70
73360;DHT22;63092;43.582;19.528;2024-01-11T15:18:57;2.60;93.80
73360;DHT22;63092;43.582;19.528;2024-01-11T15:21:23;2.60;94.00
73360;DHT22;63092;43.582;19.528;2024-01-11T15:23:49;2.60;93.60
73360;DHT22;63092;43.582;19.528;2024-01-11T15:26:15;2.50;93.60